Time;durP1;ratioP1;P1;durP2;ratioP2;P2;SDS_P1;SDS_P2;PMS_P1;PMS_P2;Temp;Humidity;BMP_temperature;BMP_pressure;BME280_temperature;BME280_humidity;BME280_pressure;Samples;Min_cycle;Max_cycle;Signal;HPM_P1;HPM_P2
2021/04/27 00:01:48;;;;;;;10.50;9.90;;;4.80;99.90;;;;;;5066525;28;20097;-74
2021/04/27 00:04:14;;;;;;;11.48;10.70;;;4.80;99.90;;;;;;5069481;28;20059;-74
2021/04/27 00:06:41;;;;;;;11.35;10.30;;;4.80;99.90;;;;;;5068388;28;20534;-72
2021/04/27 00:09:08;;;;;;;10.93;10.05;;;4.80;99.90;;;;;;5070789;28;20051;-72
2021/04/27 00:11:35;;;;;;;10.63;10.02;;;4.70;99.90;;;;;;5070562;28;20070;-72
2021/04/27 00:14:03;;;;;;;10.30;9.70;;;4.70;99.90;;;;;;5070555;28;20075;-72
2021/04/27 00:16:30;;;;;;;11.98;10.73;;;4.70;99.90;;;;;;5088453;28;20050;-73
2021/04/27 00:18:56;;;;;;;11.30;10.27;;;4.70;99.90;;;;;;5054593;28;20139;-72
2021/04/27 00:21:23;;;;;;;10.45;9.85;;;4.70;99.90;;;;;;5070445;28;20039;-73
2021/04/27 00:23:50;;;;;;;10.38;9.73;;;4.70;99.90;;;;;;5053326;28;20054;-73
2021/04/27 00:26:16;;;;;;;10.90;10.30;;;4.60;99.90;;;;;;5070505;28;20544;-73
2021/04/27 00:28:42;;;;;;;10.95;10.25;;;4.70;99.90;;;;;;5071082;28;20056;-73
2021/04/27 00:31:09;;;;;;;11.05;10.13;;;4.70;99.90;;;;;;5052068;28;20135;-73
2021/04/27 00:33:36;;;;;;;12.63;9.98;;;4.60;99.90;;;;;;5085488;28;20143;-73
2021/04/27 00:36:03;;;;;;;10.70;10.20;;;4.50;99.90;;;;;;5096339;28;20141;-73
2021/04/27 00:38:29;;;;;;;10.90;10.25;;;4.50;99.90;;;;;;5070928;28;20143;-73
2021/04/27 00:40:56;;;;;;;10.13;9.63;;;4.50;99.90;;;;;;5053766;28;20050;-73
2021/04/27 00:43:22;;;;;;;10.63;10.07;;;4.40;99.90;;;;;;5039074;28;20147;-72
2021/04/27 00:45:48;;;;;;;10.57;9.98;;;4.50;99.90;;;;;;5086020;28;20105;-72
2021/04/27 00:48:15;;;;;;;10.30;9.50;;;4.40;99.90;;;;;;5070611;28;20147;-73
2021/04/27 00:50:42;;;;;;;9.82;9.23;;;4.40;99.90;;;;;;5053023;28;20052;-72
2021/04/27 00:53:10;;;;;;;10.43;9.73;;;4.30;99.90;;;;;;5053438;28;20777;-73
2021/04/27 00:55:37;;;;;;;10.40;9.30;;;4.40;99.90;;;;;;5068431;28;20052;-73
2021/04/27 00:58:04;;;;;;;10.60;9.80;;;4.30;99.90;;;;;;5055969;28;20133;-72
2021/04/27 01:00:38;;;;;;;9.82;9.30;;;4.30;99.90;;;;;;5070970;28;20053;-72
2021/04/27 01:03:05;;;;;;;10.98;10.02;;;4.30;99.90;;;;;;5039310;28;20625;-72
2021/04/27 01:05:34;;;;;;;10.20;9.43;;;4.30;99.90;;;;;;5057254;28;20044;-72
2021/04/27 01:08:18;;;;;;;11.13;10.23;;;4.20;99.90;;;;;;5071379;28;20040;-73
2021/04/27 01:11:12;;;;;;;10.60;9.90;;;4.20;99.90;;;;;;5087891;28;20741;-73
2021/04/27 01:14:15;;;;;;;10.23;9.60;;;4.20;99.90;;;;;;5068325;28;20306;-73
2021/04/27 01:16:50;;;;;;;10.07;9.43;;;4.20;99.90;;;;;;5051332;28;20056;-72
2021/04/27 01:19:28;;;;;;;9.95;9.45;;;4.20;99.90;;;;;;5070341;28;20135;-73
2021/04/27 01:21:57;;;;;;;10.55;9.85;;;4.10;99.90;;;;;;5069177;28;20159;-73
2021/04/27 01:24:34;;;;;;;10.25;9.40;;;4.10;99.90;;;;;;5067737;28;20059;-72
2021/04/27 01:27:02;;;;;;;16.25;9.55;;;4.00;99.90;;;;;;5102674;28;20048;-73
2021/04/27 01:29:32;;;;;;;10.40;9.60;;;4.00;99.90;;;;;;5102831;28;20393;-73
2021/04/27 01:32:02;;;;;;;10.65;9.95;;;4.00;99.90;;;;;;5068276;28;20098;-72
2021/04/27 01:34:33;;;;;;;9.73;9.13;;;4.00;99.90;;;;;;5051713;28;20047;-72
2021/04/27 01:37:04;;;;;;;9.60;9.10;;;3.90;99.90;;;;;;5031307;28;20110;-72
2021/04/27 01:39:32;;;;;;;10.38;9.68;;;3.90;99.90;;;;;;5049092;28;20048;-73
2021/04/27 01:42:00;;;;;;;10.18;9.48;;;3.90;99.90;;;;;;5067743;28;20044;-74
2021/04/27 01:44:28;;;;;;;10.18;9.45;;;3.90;99.90;;;;;;5051409;28;20724;-73
2021/04/27 01:46:57;;;;;;;9.77;9.10;;;3.80;99.90;;;;;;5050475;28;20181;-73
2021/04/27 01:49:24;;;;;;;9.60;9.10;;;3.80;99.90;;;;;;5069497;28;20058;-73
2021/04/27 01:52:17;;;;;;;9.73;9.13;;;3.80;99.90;;;;;;5041620;28;20051;-73
2021/04/27 01:54:48;;;;;;;9.93;9.32;;;3.70;99.90;;;;;;5051487;28;20059;-73
2021/04/27 01:57:17;;;;;;;10.05;9.25;;;3.70;99.90;;;;;;5049867;28;20040;-73
2021/04/27 01:59:44;;;;;;;9.90;9.25;;;3.70;99.90;;;;;;5066143;28;20075;-72
2021/04/27 02:02:23;;;;;;;9.93;9.23;;;3.70;99.90;;;;;;5031205;28;20060;-73
2021/04/27 02:05:08;;;;;;;10.43;9.50;;;3.60;99.90;;;;;;5046142;28;20048;-73
2021/04/27 02:07:49;;;;;;;10.38;9.70;;;3.60;99.90;;;;;;5082563;28;20067;-73
2021/04/27 02:10:16;;;;;;;9.88;8.88;;;3.60;99.90;;;;;;5048922;27;20475;-74
2021/04/27 02:12:51;;;;;;;10.32;9.50;;;3.60;99.90;;;;;;5071633;28;20100;-72
2021/04/27 02:15:21;;;;;;;10.20;9.50;;;3.50;99.90;;;;;;5033700;28;20152;-72
2021/04/27 02:18:12;;;;;;;10.18;9.57;;;3.50;99.90;;;;;;5066190;28;20143;-73
2021/04/27 02:20:41;;;;;;;10.65;9.73;;;3.40;99.90;;;;;;5034824;28;20048;-73
2021/04/27 02:23:29;;;;;;;9.88;9.38;;;3.40;99.90;;;;;;5068256;28;20052;-72
2021/04/27 02:26:16;;;;;;;10.32;9.52;;;3.40;99.90;;;;;;5052371;28;20048;-72
2021/04/27 02:28:47;;;;;;;10.80;9.85;;;3.40;99.90;;;;;;5050297;28;20060;-73
2021/04/27 02:31:15;;;;;;;9.23;8.77;;;3.40;99.90;;;;;;5083830;28;20055;-71
2021/04/27 02:33:43;;;;;;;9.88;9.30;;;3.40;99.90;;;;;;5030879;28;20076;-72
2021/04/27 02:36:11;;;;;;;10.25;9.48;;;3.40;99.90;;;;;;5065611;28;20058;-72
2021/04/27 02:38:57;;;;;;;10.55;9.75;;;3.50;99.90;;;;;;5063529;28;20040;-73
2021/04/27 02:41:30;;;;;;;9.88;9.20;;;3.40;99.90;;;;;;5064122;28;20059;-73
2021/04/27 02:44:01;;;;;;;9.60;9.20;;;3.40;99.90;;;;;;5032044;28;20056;-72
2021/04/27 02:46:28;;;;;;;10.55;9.52;;;3.40;99.90;;;;;;5054434;28;20486;-72
2021/04/27 02:48:59;;;;;;;10.90;9.88;;;3.30;99.90;;;;;;5050817;28;20078;-72
2021/04/27 02:51:27;;;;;;;10.27;9.65;;;3.30;99.90;;;;;;5051101;28;20067;-73
2021/04/27 02:54:03;;;;;;;9.85;9.35;;;3.30;99.90;;;;;;5065091;28;20051;-72
2021/04/27 02:56:31;;;;;;;10.10;9.15;;;3.40;99.90;;;;;;5066452;28;20076;-72
2021/04/27 02:58:59;;;;;;;9.82;9.25;;;3.30;99.90;;;;;;5051473;28;20082;-72
2021/04/27 03:01:26;;;;;;;11.52;10.43;;;3.30;99.90;;;;;;5078107;28;20059;-71
2021/04/27 03:03:53;;;;;;;10.18;9.30;;;3.20;99.90;;;;;;5050544;28;20071;-72
2021/04/27 03:06:23;;;;;;;11.35;9.73;;;3.20;99.90;;;;;;5070486;28;20134;-72
2021/04/27 03:09:05;;;;;;;10.15;9.55;;;3.20;99.90;;;;;;5045663;28;20044;-73
2021/04/27 03:11:33;;;;;;;9.65;9.20;;;3.20;99.90;;;;;;5045682;28;20118;-72
2021/04/27 03:14:00;;;;;;;9.32;8.73;;;3.20;99.90;;;;;;5047099;28;20055;-72
2021/04/27 03:16:32;;;;;;;10.35;9.55;;;3.20;99.90;;;;;;5040768;28;20070;-73
2021/04/27 03:18:58;;;;;;;10.07;9.40;;;3.20;99.90;;;;;;5066572;28;20054;-72
2021/04/27 03:21:28;;;;;;;9.90;9.20;;;3.20;99.90;;;;;;5034932;28;20055;-71
2021/04/27 03:23:55;;;;;;;10.45;9.45;;;3.10;99.90;;;;;;5034591;28;20051;-71
2021/04/27 03:26:23;;;;;;;10.30;9.40;;;3.10;99.90;;;;;;5057368;28;20052;-72
2021/04/27 03:29:04;;;;;;;10.63;9.80;;;3.10;99.90;;;;;;5068245;28;20500;-72
2021/04/27 03:31:34;;;;;;;10.90;8.95;;;3.10;99.90;;;;;;5047611;28;20053;-72
2021/04/27 03:34:01;;;;;;;10.18;9.38;;;3.00;99.90;;;;;;5068430;28;20167;-71
2021/04/27 03:36:27;;;;;;;10.40;9.68;;;3.00;99.90;;;;;;5083941;28;20052;-74
2021/04/27 03:38:55;;;;;;;9.65;9.15;;;3.00;99.90;;;;;;5071181;28;20386;-72
2021/04/27 03:41:22;;;;;;;10.27;9.45;;;2.90;99.90;;;;;;5035083;28;20048;-72
2021/04/27 03:43:49;;;;;;;9.93;9.10;;;3.00;99.90;;;;;;5053409;28;20087;-72
2021/04/27 03:46:16;;;;;;;10.27;9.68;;;3.00;99.90;;;;;;5061637;28;20090;-72
2021/04/27 03:48:42;;;;;;;10.70;9.80;;;2.90;99.90;;;;;;5071392;28;20082;-72
2021/04/27 03:51:09;;;;;;;10.80;10.10;;;2.90;99.90;;;;;;5054886;28;20048;-72
2021/04/27 03:53:42;;;;;;;10.85;10.25;;;2.90;99.90;;;;;;5072666;28;20055;-72
2021/04/27 03:56:15;;;;;;;10.50;9.80;;;2.80;99.90;;;;;;5037375;28;20130;-72
2021/04/27 03:58:42;;;;;;;11.40;9.60;;;2.80;99.90;;;;;;5054997;28;20087;-72
2021/04/27 04:01:10;;;;;;;10.68;9.85;;;2.80;99.90;;;;;;5071009;28;20059;-73
2021/04/27 04:03:40;;;;;;;11.10;10.15;;;2.70;99.90;;;;;;5054382;28;20484;-72
2021/04/27 04:06:10;;;;;;;10.68;9.98;;;2.70;99.90;;;;;;5053620;28;20461;-72
2021/04/27 04:08:52;;;;;;;10.80;10.07;;;2.70;99.90;;;;;;5074085;28;20130;-72
2021/04/27 04:11:22;;;;;;;11.20;10.45;;;2.70;99.90;;;;;;5053873;28;20052;-72
2021/04/27 04:13:48;;;;;;;11.70;10.90;;;2.70;99.90;;;;;;5070724;28;20473;-73
2021/04/27 04:16:16;;;;;;;12.45;11.32;;;2.80;99.90;;;;;;5070173;28;20048;-71
2021/04/27 04:18:44;;;;;;;12.23;11.60;;;2.70;99.90;;;;;;5069537;28;20086;-73
2021/04/27 04:21:11;;;;;;;12.93;12.13;;;2.70;99.90;;;;;;5055279;28;20139;-72
2021/04/27 04:23:53;;;;;;;12.55;11.88;;;2.70;99.90;;;;;;5039722;28;20056;-72
2021/04/27 04:26:19;;;;;;;12.50;11.65;;;2.70;99.90;;;;;;5072284;28;20390;-72
2021/04/27 04:29:06;;;;;;;12.10;11.23;;;2.70;99.90;;;;;;5069902;28;20055;-73
2021/04/27 04:31:35;;;;;;;12.00;11.25;;;2.70;99.90;;;;;;5052740;28;20040;-73
2021/04/27 04:34:20;;;;;;;12.25;11.38;;;2.80;99.90;;;;;;5087501;28;20051;-72
2021/04/27 04:37:05;;;;;;;12.23;11.38;;;2.70;99.90;;;;;;5048613;28;20044;-73
2021/04/27 04:39:50;;;;;;;12.45;11.65;;;2.70;99.90;;;;;;5064131;28;20463;-72
2021/04/27 04:42:37;;;;;;;12.13;11.20;;;2.80;99.90;;;;;;5067689;28;20048;-72
2021/04/27 04:45:29;;;;;;;12.18;11.30;;;2.80;99.90;;;;;;5055264;28;20424;-73
2021/04/27 04:48:15;;;;;;;12.27;11.68;;;2.80;99.90;;;;;;5055031;28;20203;-73
2021/04/27 04:50:59;;;;;;;11.93;10.98;;;2.90;99.90;;;;;;5068923;28;20067;-73
2021/04/27 04:53:50;;;;;;;10.93;10.32;;;2.90;99.90;;;;;;5039480;28;20095;-73
2021/04/27 04:56:17;;;;;;;11.40;10.73;;;3.00;99.90;;;;;;5045885;28;20049;-72
2021/04/27 04:58:43;;;;;;;11.52;10.60;;;3.00;99.90;;;;;;5042055;28;20052;-73
2021/04/27 05:01:10;;;;;;;11.15;10.55;;;3.00;99.90;;;;;;5035897;28;20062;-72
2021/04/27 05:03:40;;;;;;;11.73;10.90;;;3.00;99.90;;;;;;5087149;28;20043;-73
2021/04/27 05:06:39;;;;;;;12.93;12.02;;;3.10;99.90;;;;;;5086815;28;20082;-72
2021/04/27 05:09:24;;;;;;;11.25;10.65;;;3.20;99.90;;;;;;5055766;28;20055;-72
2021/04/27 05:11:59;;;;;;;12.38;11.48;;;3.10;99.90;;;;;;5037841;28;20135;-73
2021/04/27 05:14:36;;;;;;;11.95;11.13;;;3.20;99.90;;;;;;5050673;28;20079;-73
2021/04/27 05:17:05;;;;;;;11.68;10.80;;;3.20;99.90;;;;;;5050962;28;20103;-72
2021/04/27 05:19:33;;;;;;;11.93;11.07;;;3.30;99.90;;;;;;5049603;28;20054;-72
2021/04/27 05:22:02;;;;;;;12.65;11.85;;;3.30;99.90;;;;;;5063633;28;20052;-72
2021/04/27 05:24:30;;;;;;;12.32;11.63;;;3.40;99.90;;;;;;5036161;28;20142;-72
2021/04/27 05:27:07;;;;;;;15.98;14.57;;;3.40;99.90;;;;;;5053303;28;20055;-72
2021/04/27 05:29:34;;;;;;;12.88;12.10;;;3.40;99.90;;;;;;5034359;28;20076;-72
2021/04/27 05:32:01;;;;;;;13.38;12.50;;;3.50;99.90;;;;;;5086934;28;20039;-73
2021/04/27 05:34:28;;;;;;;13.45;12.55;;;3.50;99.90;;;;;;5047266;28;20040;-73
2021/04/27 05:36:54;;;;;;;13.82;12.40;;;3.60;99.90;;;;;;5068421;28;20068;-72
2021/04/27 05:39:21;;;;;;;12.82;12.13;;;3.70;99.90;;;;;;5088990;28;20064;-73
2021/04/27 05:41:48;;;;;;;13.88;13.00;;;3.80;99.90;;;;;;5070284;28;20093;-72
2021/04/27 05:44:14;;;;;;;13.13;12.43;;;3.90;99.90;;;;;;5065358;28;20048;-72
2021/04/27 05:46:41;;;;;;;13.50;12.77;;;3.90;99.90;;;;;;5080925;28;20124;-71
2021/04/27 05:49:07;;;;;;;13.00;12.13;;;4.00;99.90;;;;;;5066364;28;20103;-72
2021/04/27 05:51:33;;;;;;;14.05;13.05;;;4.10;99.90;;;;;;5082110;28;20040;-72
2021/04/27 05:54:00;;;;;;;13.20;12.50;;;4.10;99.90;;;;;;5080678;28;20115;-72
2021/04/27 05:56:26;;;;;;;13.50;12.55;;;4.20;99.90;;;;;;5087979;28;20060;-73
2021/04/27 05:58:53;;;;;;;12.40;11.88;;;4.20;99.90;;;;;;5070558;28;20504;-72
2021/04/27 06:01:21;;;;;;;13.85;12.77;;;4.30;99.90;;;;;;5068750;28;20091;-72
2021/04/27 06:03:48;;;;;;;13.07;12.25;;;4.20;99.90;;;;;;5028655;28;20048;-71
2021/04/27 06:06:15;;;;;;;12.40;11.75;;;4.20;99.90;;;;;;5063732;28;20144;-72
2021/04/27 06:08:41;;;;;;;13.00;12.20;;;4.20;99.90;;;;;;5068086;28;20056;-72
2021/04/27 06:11:08;;;;;;;12.93;12.23;;;4.30;99.90;;;;;;5091673;28;20048;-72
2021/04/27 06:13:34;;;;;;;12.98;12.27;;;4.40;99.90;;;;;;5072544;28;20060;-72
2021/04/27 06:16:02;;;;;;;12.43;11.73;;;4.50;99.90;;;;;;5091356;28;20064;-71
2021/04/27 06:18:29;;;;;;;12.73;11.93;;;4.50;99.90;;;;;;5070512;28;20208;-72
2021/04/27 06:20:56;;;;;;;14.27;13.40;;;4.60;99.90;;;;;;5076765;28;20055;-72
2021/04/27 06:23:23;;;;;;;13.18;12.35;;;4.70;99.90;;;;;;5068464;28;20075;-72
2021/04/27 06:25:50;;;;;;;13.10;12.50;;;4.80;99.90;;;;;;5066787;28;20310;-72
2021/04/27 06:28:16;;;;;;;13.07;12.40;;;5.00;99.90;;;;;;5065021;28;20075;-71
2021/04/27 06:30:44;;;;;;;12.93;12.30;;;5.30;99.90;;;;;;5044581;28;20149;-71
2021/04/27 06:33:11;;;;;;;13.32;12.52;;;5.50;99.90;;;;;;5070026;28;20048;-72
2021/04/27 06:35:38;;;;;;;13.80;13.00;;;5.70;99.90;;;;;;5069470;28;20175;-72
2021/04/27 06:38:06;;;;;;;12.50;11.75;;;6.00;98.90;;;;;;5052355;28;20074;-72
2021/04/27 06:40:32;;;;;;;13.80;13.00;;;6.20;99.10;;;;;;5078869;28;20059;-72
2021/04/27 06:42:59;;;;;;;14.05;13.05;;;6.20;98.70;;;;;;5032683;28;20143;-72
2021/04/27 06:45:27;;;;;;;12.73;11.82;;;6.20;97.70;;;;;;5065171;28;20056;-72
2021/04/27 06:47:53;;;;;;;12.70;12.05;;;6.30;98.00;;;;;;5066691;28;20044;-71
2021/04/27 06:50:21;;;;;;;12.50;11.60;;;6.40;97.10;;;;;;5068541;27;20048;-72
2021/04/27 06:52:53;;;;;;;12.95;12.13;;;6.50;97.20;;;;;;5053974;28;20281;-72
2021/04/27 06:55:19;;;;;;;12.93;12.13;;;6.60;96.00;;;;;;5066325;28;20036;-72
2021/04/27 06:57:45;;;;;;;12.93;11.90;;;6.80;94.80;;;;;;5066685;28;20451;-72
2021/04/27 07:00:12;;;;;;;13.32;12.25;;;7.00;95.00;;;;;;5070076;28;20427;-72
2021/04/27 07:02:39;;;;;;;12.57;11.98;;;7.30;94.50;;;;;;5066117;28;20141;-72
2021/04/27 07:05:07;;;;;;;11.68;11.07;;;7.40;93.40;;;;;;5065936;28;20726;-71
2021/04/27 07:07:33;;;;;;;12.55;11.68;;;7.10;93.90;;;;;;5050066;28;20093;-72
2021/04/27 07:09:59;;;;;;;12.07;11.40;;;7.50;93.30;;;;;;5050383;28;20429;-71
2021/04/27 07:12:26;;;;;;;12.80;12.02;;;7.20;93.50;;;;;;5082779;28;20083;-72
2021/04/27 07:14:53;;;;;;;12.85;12.05;;;7.30;93.90;;;;;;5067318;28;20044;-72
2021/04/27 07:17:20;;;;;;;13.05;12.10;;;7.40;92.10;;;;;;5079997;28;20045;-71
2021/04/27 07:19:46;;;;;;;12.10;11.18;;;7.20;92.60;;;;;;5087921;28;20147;-72
2021/04/27 07:22:13;;;;;;;12.50;11.30;;;7.50;92.20;;;;;;5069825;28;20036;-72
2021/04/27 07:24:39;;;;;;;12.07;11.48;;;7.70;92.80;;;;;;5042685;28;20135;-72
2021/04/27 07:27:06;;;;;;;12.70;11.63;;;7.50;92.00;;;;;;5107176;28;20055;-72
2021/04/27 07:29:32;;;;;;;12.10;11.35;;;7.80;91.00;;;;;;5090329;28;20058;-72
2021/04/27 07:32:00;;;;;;;12.18;11.25;;;7.90;91.00;;;;;;5069757;28;20565;-72
2021/04/27 07:34:26;;;;;;;12.18;11.48;;;8.10;90.80;;;;;;5036033;28;20050;-73
2021/04/27 07:36:53;;;;;;;12.15;11.25;;;7.80;89.70;;;;;;5054508;28;20075;-71
2021/04/27 07:39:20;;;;;;;11.98;11.38;;;7.60;89.60;;;;;;5074213;28;20349;-73
2021/04/27 07:41:46;;;;;;;12.13;11.25;;;7.50;90.50;;;;;;5056428;28;20140;-72
2021/04/27 07:44:12;;;;;;;12.20;11.10;;;7.20;91.40;;;;;;5061743;28;20377;-72
2021/04/27 07:46:39;;;;;;;11.85;11.05;;;8.00;87.90;;;;;;5102340;28;20044;-72
2021/04/27 07:49:06;;;;;;;11.43;10.55;;;8.10;88.50;;;;;;5068879;28;20060;-72
2021/04/27 07:51:34;;;;;;;11.55;10.57;;;8.00;90.10;;;;;;5085594;28;20334;-74
2021/04/27 07:54:00;;;;;;;12.07;11.38;;;8.20;88.30;;;;;;5068454;28;20058;-75
2021/04/27 07:56:29;;;;;;;11.55;10.98;;;8.30;85.90;;;;;;5067654;28;20059;-72
2021/04/27 07:59:02;;;;;;;12.43;11.60;;;8.40;86.50;;;;;;5084215;28;20405;-73
2021/04/27 08:01:35;;;;;;;12.60;11.93;;;8.50;86.40;;;;;;5055141;28;20061;-73
2021/04/27 08:04:03;;;;;;;12.45;11.75;;;8.40;86.20;;;;;;5066337;28;20072;-73
2021/04/27 08:06:30;;;;;;;12.88;12.07;;;8.50;84.20;;;;;;5081742;28;21346;-72
2021/04/27 08:09:00;;;;;;;13.23;12.43;;;8.20;86.30;;;;;;5081297;28;20143;-73
2021/04/27 08:11:29;;;;;;;13.85;13.05;;;8.50;85.50;;;;;;5050023;28;20051;-72
2021/04/27 08:13:55;;;;;;;14.30;12.88;;;8.60;84.50;;;;;;5067215;28;20126;-71
2021/04/27 08:16:22;;;;;;;13.45;12.70;;;8.20;86.80;;;;;;5067442;28;20044;-73
2021/04/27 08:18:49;;;;;;;13.48;12.77;;;8.30;86.50;;;;;;5073475;28;20057;-71
2021/04/27 08:21:16;;;;;;;13.13;12.40;;;8.60;85.10;;;;;;5066474;28;20048;-73
2021/04/27 08:23:43;;;;;;;13.35;12.65;;;8.70;85.20;;;;;;5067592;28;20055;-73
2021/04/27 08:26:11;;;;;;;13.60;12.80;;;9.10;84.00;;;;;;5064020;28;20628;-72
2021/04/27 08:28:39;;;;;;;13.60;12.75;;;9.10;84.60;;;;;;5065970;28;20058;-72
2021/04/27 08:31:06;;;;;;;14.95;13.77;;;9.00;83.50;;;;;;5052350;28;20084;-71
2021/04/27 08:33:34;;;;;;;12.43;11.73;;;9.20;84.10;;;;;;5071569;28;20063;-72
2021/04/27 08:36:00;;;;;;;13.65;12.68;;;9.30;82.40;;;;;;5051134;28;20048;-72
2021/04/27 08:38:27;;;;;;;14.50;13.40;;;8.90;83.70;;;;;;5053104;28;20056;-72
2021/04/27 08:40:54;;;;;;;13.55;12.70;;;9.00;82.70;;;;;;5069344;28;20075;-71
2021/04/27 08:43:21;;;;;;;13.98;13.20;;;8.90;82.00;;;;;;5068830;28;20060;-71
2021/04/27 08:45:48;;;;;;;13.95;13.20;;;8.90;83.00;;;;;;5083652;28;20645;-71
2021/04/27 08:48:15;;;;;;;15.15;14.02;;;9.10;82.90;;;;;;5067113;28;20059;-71
2021/04/27 08:50:43;;;;;;;14.38;13.43;;;9.30;82.30;;;;;;5064144;28;20106;-72
2021/04/27 08:53:11;;;;;;;13.75;12.95;;;9.20;83.40;;;;;;5041743;28;20210;-71
2021/04/27 08:55:38;;;;;;;14.40;13.30;;;9.40;81.60;;;;;;5043296;28;20051;-72
2021/04/27 08:58:07;;;;;;;14.95;13.80;;;9.70;79.70;;;;;;5061622;28;20492;-71
2021/04/27 09:00:34;;;;;;;14.48;13.68;;;9.50;79.60;;;;;;5049562;28;20640;-71
2021/04/27 09:03:04;;;;;;;14.30;13.50;;;10.00;77.30;;;;;;5063896;28;20101;-72
2021/04/27 09:05:33;;;;;;;14.98;14.07;;;10.00;78.70;;;;;;5083466;28;20174;-71
2021/04/27 09:16:51;;;;;;;15.20;14.00;;;9.60;75.20;;;;;;5046660;28;20233;-71
2021/04/27 09:19:44;;;;;;;14.50;13.65;;;9.10;77.20;;;;;;5042471;28;20036;-71
2021/04/27 09:22:23;;;;;;;14.93;13.70;;;9.50;76.40;;;;;;5069576;28;20565;-71
2021/04/27 09:24:52;;;;;;;14.93;13.98;;;9.70;77.90;;;;;;5097022;28;20374;-72
2021/04/27 09:27:36;;;;;;;14.35;13.48;;;9.50;75.40;;;;;;5045069;28;20040;-72
2021/04/27 09:30:11;;;;;;;14.10;13.27;;;9.50;76.60;;;;;;5062998;28;20480;-71
2021/04/27 09:36:18;;;;;;;13.07;12.48;;;10.20;76.40;;;;;;5007774;28;20528;-70
2021/04/27 09:38:44;;;;;;;14.30;13.52;;;10.20;75.00;;;;;;5027726;28;20524;-72
2021/04/27 09:41:11;;;;;;;14.27;13.38;;;10.20;76.40;;;;;;5059439;28;20053;-71
2021/04/27 09:43:40;;;;;;;13.68;12.88;;;9.90;76.80;;;;;;5064022;28;20044;-70
2021/04/27 09:46:14;;;;;;;14.00;13.13;;;10.20;78.00;;;;;;5060761;28;20055;-71
2021/04/27 09:48:42;;;;;;;13.38;12.68;;;10.40;76.50;;;;;;5062022;28;20040;-71
2021/04/27 09:51:28;;;;;;;13.32;12.63;;;10.50;75.10;;;;;;5059735;28;20041;-70
2021/04/27 09:54:10;;;;;;;14.35;13.38;;;10.50;75.70;;;;;;5045541;28;20059;-70
2021/04/27 09:56:50;;;;;;;13.82;13.13;;;10.80;73.90;;;;;;5063002;28;20719;-71
2021/04/27 09:59:31;;;;;;;14.18;13.38;;;10.40;75.80;;;;;;5047375;28;20044;-70
2021/04/27 10:02:06;;;;;;;15.13;14.00;;;10.40;75.40;;;;;;5058242;28;20044;-70
2021/04/27 10:04:32;;;;;;;14.30;13.50;;;10.70;76.70;;;;;;5060692;28;20056;-71
2021/04/27 10:07:19;;;;;;;17.25;15.57;;;11.00;75.30;;;;;;5060090;28;20079;-71
2021/04/27 10:09:46;;;;;;;13.95;13.23;;;11.00;74.50;;;;;;5062420;28;20048;-71
2021/04/27 10:12:13;;;;;;;15.13;14.32;;;11.00;73.40;;;;;;5060496;28;20531;-71
2021/04/27 10:14:41;;;;;;;15.40;14.50;;;11.20;74.40;;;;;;5067172;28;20066;-71
2021/04/27 10:17:15;;;;;;;14.73;13.95;;;11.10;74.90;;;;;;5067567;28;20045;-70
2021/04/27 10:19:42;;;;;;;15.50;14.65;;;10.90;75.40;;;;;;5049211;28;20071;-71
2021/04/27 10:22:10;;;;;;;14.20;13.30;;;10.90;77.50;;;;;;5063524;28;20516;-71
2021/04/27 10:24:39;;;;;;;14.02;13.13;;;11.30;75.40;;;;;;5067338;28;20052;-71
2021/04/27 10:27:06;;;;;;;14.45;13.65;;;11.60;74.10;;;;;;5057794;28;20057;-71
2021/04/27 10:29:33;;;;;;;14.00;13.18;;;11.80;75.00;;;;;;5065841;28;20053;-71
2021/04/27 10:32:21;;;;;;;14.05;13.25;;;11.40;76.20;;;;;;5064277;28;20134;-70
2021/04/27 10:34:57;;;;;;;15.55;14.40;;;11.40;74.90;;;;;;5060592;28;20325;-72
2021/04/27 10:37:27;;;;;;;;;;;11.40;75.90;;;;;;5062723;28;20052;-72
2021/04/27 10:39:53;;;;;;;15.35;14.38;;;11.50;74.60;;;;;;5060025;28;19977;-71
2021/04/27 10:42:31;;;;;;;15.50;14.50;;;11.60;76.80;;;;;;5064075;28;20048;-71
2021/04/27 10:45:08;;;;;;;16.55;14.18;;;11.60;76.30;;;;;;5066172;28;20481;-71
2021/04/27 10:47:42;;;;;;;15.00;13.73;;;11.90;76.70;;;;;;5082538;28;20408;-71
2021/04/27 10:50:29;;;;;;;14.93;13.80;;;11.90;73.30;;;;;;5084194;28;20393;-72
2021/04/27 10:53:36;;;;;;;15.18;13.93;;;12.00;74.10;;;;;;5084860;28;20400;-71
2021/04/27 10:56:04;;;;;;;15.00;13.75;;;11.80;75.00;;;;;;5042137;28;20063;-71
2021/04/27 10:58:46;;;;;;;15.45;14.13;;;11.30;74.30;;;;;;5054034;28;20080;-71
2021/04/27 11:01:29;;;;;;;14.93;13.93;;;11.70;74.60;;;;;;5056666;28;20516;-72
2021/04/27 11:03:59;;;;;;;15.20;14.20;;;11.50;75.70;;;;;;5047929;28;20048;-71
2021/04/27 11:06:26;;;;;;;14.75;13.82;;;11.70;76.10;;;;;;5062790;28;20358;-71
2021/04/27 11:08:57;;;;;;;14.90;13.98;;;11.90;72.60;;;;;;5063368;28;20071;-72
2021/04/27 11:11:32;;;;;;;13.73;13.02;;;12.10;73.50;;;;;;5068903;28;20056;-71
2021/04/27 11:14:17;;;;;;;15.63;14.55;;;12.00;72.80;;;;;;5061028;28;20116;-71
2021/04/27 11:16:52;;;;;;;16.25;14.55;;;11.90;76.60;;;;;;5061649;28;20059;-70
2021/04/27 11:19:19;;;;;;;;;;;11.70;72.70;;;;;;5060369;28;20111;-70
2021/04/27 11:21:46;;;;;;;15.95;15.02;;;11.50;73.10;;;;;;5074612;28;19933;-71
2021/04/27 11:24:38;;;;;;;16.25;14.98;;;11.40;75.90;;;;;;5072570;28;20666;-74
2021/04/27 11:27:18;;;;;;;14.80;14.10;;;11.20;76.10;;;;;;5048939;28;20076;-72
2021/04/27 11:29:53;;;;;;;15.45;14.40;;;11.60;78.20;;;;;;5062884;28;20048;-71
2021/04/27 11:32:20;;;;;;;14.93;13.82;;;11.70;76.00;;;;;;5063176;28;20131;-73
2021/04/27 11:34:57;;;;;;;14.93;13.93;;;11.60;73.70;;;;;;5045972;28;20048;-72
2021/04/27 11:37:36;;;;;;;14.70;13.90;;;11.70;76.20;;;;;;5062269;28;20059;-72
2021/04/27 11:40:20;;;;;;;14.90;14.10;;;11.60;74.40;;;;;;5046599;28;20128;-71
2021/04/27 11:42:54;;;;;;;14.82;13.82;;;11.90;75.40;;;;;;5060793;28;20053;-72
2021/04/27 11:45:22;;;;;;;14.40;13.50;;;12.00;74.20;;;;;;5063627;28;20057;-72
2021/04/27 11:47:49;;;;;;;15.00;13.93;;;12.10;75.60;;;;;;5062705;28;20079;-72
2021/04/27 11:50:18;;;;;;;15.20;14.20;;;11.60;75.10;;;;;;5062647;28;20401;-72
2021/04/27 11:52:49;;;;;;;14.65;13.65;;;11.60;74.20;;;;;;5062411;28;20066;-72
2021/04/27 11:55:26;;;;;;;15.32;14.23;;;11.60;75.00;;;;;;5063426;28;20106;-72
2021/04/27 11:58:01;;;;;;;15.45;14.25;;;11.70;76.60;;;;;;5064156;28;20431;-72
2021/04/27 12:00:40;;;;;;;14.25;13.27;;;12.00;75.50;;;;;;5063349;28;20067;-72
2021/04/27 12:03:21;;;;;;;14.75;13.85;;;12.10;74.50;;;;;;5066436;28;20048;-72
2021/04/27 12:06:13;;;;;;;14.18;13.25;;;12.00;75.60;;;;;;5066146;28;20131;-72
2021/04/27 12:08:41;;;;;;;14.15;13.32;;;12.00;74.50;;;;;;5056271;28;20355;-72
2021/04/27 12:11:13;;;;;;;14.82;13.85;;;11.60;75.20;;;;;;5065990;28;20045;-72
2021/04/27 12:13:55;;;;;;;15.43;13.88;;;11.50;76.50;;;;;;5065818;28;20596;-72
2021/04/27 12:16:22;;;;;;;14.80;13.93;;;12.00;75.60;;;;;;5074187;28;20569;-72
2021/04/27 12:19:13;;;;;;;14.68;13.60;;;12.30;75.00;;;;;;5049109;28;20061;-73
2021/04/27 12:21:59;;;;;;;15.18;14.10;;;12.30;75.00;;;;;;5052192;28;20677;-72
2021/04/27 12:24:30;;;;;;;15.23;14.23;;;12.80;74.50;;;;;;5065524;28;20151;-73
2021/04/27 12:27:00;;;;;;;14.65;13.63;;;12.80;73.40;;;;;;5065310;28;20464;-73
2021/04/27 12:29:36;;;;;;;16.48;15.32;;;12.70;74.10;;;;;;5060817;28;20095;-73
2021/04/27 12:32:04;;;;;;;15.82;14.80;;;12.70;75.30;;;;;;5046801;28;20056;-73
2021/04/27 12:34:31;;;;;;;15.25;14.25;;;12.40;74.90;;;;;;5061313;28;20053;-72
2021/04/27 12:36:57;;;;;;;15.65;14.55;;;12.40;77.00;;;;;;5065191;28;20062;-72
2021/04/27 12:39:28;;;;;;;14.55;13.40;;;12.60;76.30;;;;;;5065793;28;20114;-72
2021/04/27 12:41:59;;;;;;;15.50;14.48;;;12.70;76.10;;;;;;5065586;28;20070;-72
2021/04/27 12:44:40;;;;;;;14.45;13.30;;;12.60;75.30;;;;;;5067605;28;20143;-72
2021/04/27 12:47:15;;;;;;;14.68;13.25;;;12.70;76.00;;;;;;5072076;28;20044;-72
2021/04/27 12:49:42;;;;;;;15.48;14.20;;;12.90;75.80;;;;;;5066307;28;20130;-72
2021/04/27 12:52:14;;;;;;;15.57;14.55;;;12.70;75.00;;;;;;5065067;28;20131;-72
2021/04/27 12:54:42;;;;;;;16.23;15.02;;;12.30;75.60;;;;;;5065693;28;20048;-72
2021/04/27 12:57:17;;;;;;;15.27;14.38;;;12.00;75.80;;;;;;5066795;28;20060;-72
2021/04/27 12:59:46;;;;;;;14.60;13.63;;;12.70;75.40;;;;;;5066382;28;20132;-72
2021/04/27 13:02:14;;;;;;;14.68;13.55;;;13.20;74.30;;;;;;5064509;28;20497;-72
2021/04/27 13:04:52;;;;;;;14.45;13.27;;;13.00;73.50;;;;;;5066152;28;20067;-72
2021/04/27 13:07:21;;;;;;;13.43;12.52;;;12.20;74.20;;;;;;5063735;28;20408;-72
2021/04/27 13:09:48;;;;;;;13.85;13.05;;;12.50;74.50;;;;;;5045931;28;20044;-72
2021/04/27 13:12:16;;;;;;;13.75;12.85;;;12.50;74.30;;;;;;5057080;28;20296;-72